Skip Navigation LinksHome page > Weather > Current weather Skip Navigation Links

Current Weather

Indira Gandhi Intl Apt, New Delhi, India

For information only: do not use for flight planning or navigation.
Latest weather
Observation time Wednesday, October 7, 2015 7:30 AM IST
Local time Wednesday, October 7, 2015 7:56 AM IST
Flight conditions Low Instrument Meteorological Conditions
Wind direction West-Southwest (240°)
Wind speed 5 mph
Visibility 0.6 mi.
Present weather mist
Sky condition
Ceiling unlimited
Temperature 73°F
Dewpoint 68°F
Altimeter 29.85 in.Hg
Derived measurements
Relative humidity 83%
Density altitude 2087 ft.
No significant changes expected in the next two hours.
METAR VIDP 070200Z 24004KT 1000 R28/29/P2000 BR NSC 23/20 Q1011 NOSIG


Location code

InnerDrive.Weather 4.0.5722.1 Release CLR 4.0.30319.34014
Copyright ©2015 Inner Drive Technology. All rights reserved. Portions Copyright ©1986-2015 David Braverman.

Find weather

Site navigation

Skip Navigation Links

Place info

Page info

PayPal - The safer, easier way to pay online!

Return home.

Copyright ©2015 Inner Drive Technology. Purveyors of fine, hand-crafted computer software. Page printed 2015-10-07T02:26:38 UTC.